sensor_id;sensor_type;location;lat;lon;timestamp;pressure;altitude;pressure_sealevel;temperature;humidity
61537;BME280;48695;53.480;-6.300;2023-07-02T00:01:58;100517.03;;;15.61;51.55
61537;BME280;48695;53.480;-6.300;2023-07-02T00:04:23;100516.25;;;15.59;51.63
61537;BME280;48695;53.480;-6.300;2023-07-02T00:06:48;100523.38;;;15.57;51.84
61537;BME280;48695;53.480;-6.300;2023-07-02T00:09:14;100516.41;;;15.56;52.17
61537;BME280;48695;53.480;-6.300;2023-07-02T00:11:40;100503.41;;;15.53;51.80
61537;BME280;48695;53.480;-6.300;2023-07-02T00:14:06;100506.09;;;15.51;52.33
61537;BME280;48695;53.480;-6.300;2023-07-02T00:16:32;100505.38;;;15.48;51.64
61537;BME280;48695;53.480;-6.300;2023-07-02T00:18:58;100510.78;;;15.45;51.80
61537;BME280;48695;53.480;-6.300;2023-07-02T00:21:25;100509.19;;;15.41;51.59
61537;BME280;48695;53.480;-6.300;2023-07-02T00:23:53;100503.28;;;15.36;51.70
61537;BME280;48695;53.480;-6.300;2023-07-02T00:26:18;100503.53;;;15.31;51.90
61537;BME280;48695;53.480;-6.300;2023-07-02T00:28:44;100510.78;;;15.26;52.05
61537;BME280;48695;53.480;-6.300;2023-07-02T00:31:09;100513.63;;;15.21;51.94
61537;BME280;48695;53.480;-6.300;2023-07-02T00:33:34;100511.22;;;15.15;52.03
61537;BME280;48695;53.480;-6.300;2023-07-02T00:36:00;100515.84;;;15.10;52.41
61537;BME280;48695;53.480;-6.300;2023-07-02T00:38:26;100512.56;;;15.05;52.38
61537;BME280;48695;53.480;-6.300;2023-07-02T00:40:51;100513.69;;;14.99;52.61
61537;BME280;48695;53.480;-6.300;2023-07-02T00:43:16;100520.94;;;14.94;52.67
61537;BME280;48695;53.480;-6.300;2023-07-02T00:45:41;100514.13;;;14.90;52.71
61537;BME280;48695;53.480;-6.300;2023-07-02T00:48:07;100513.38;;;14.87;52.50
61537;BME280;48695;53.480;-6.300;2023-07-02T00:50:32;100504.84;;;14.82;53.12
61537;BME280;48695;53.480;-6.300;2023-07-02T00:52:58;100503.28;;;14.77;53.43
61537;BME280;48695;53.480;-6.300;2023-07-02T00:55:23;100509.56;;;14.73;53.35
61537;BME280;48695;53.480;-6.300;2023-07-02T00:57:48;100509.75;;;14.69;53.79
61537;BME280;48695;53.480;-6.300;2023-07-02T01:00:14;100504.69;;;14.64;53.98
61537;BME280;48695;53.480;-6.300;2023-07-02T01:02:39;100509.25;;;14.61;54.23
61537;BME280;48695;53.480;-6.300;2023-07-02T01:05:17;100512.00;;;14.58;54.20
61537;BME280;48695;53.480;-6.300;2023-07-02T01:07:46;100520.06;;;14.53;54.08
61537;BME280;48695;53.480;-6.300;2023-07-02T01:10:11;100514.03;;;14.51;54.10
61537;BME280;48695;53.480;-6.300;2023-07-02T01:12:37;100508.91;;;14.48;54.19
61537;BME280;48695;53.480;-6.300;2023-07-02T01:15:03;100513.34;;;14.46;54.36
61537;BME280;48695;53.480;-6.300;2023-07-02T01:17:30;100510.84;;;14.43;54.63
61537;BME280;48695;53.480;-6.300;2023-07-02T01:20:02;100456.34;;;14.06;55.03
61537;BME280;48695;53.480;-6.300;2023-07-02T01:22:29;100514.47;;;14.40;54.63
61537;BME280;48695;53.480;-6.300;2023-07-02T01:24:55;100513.72;;;14.37;54.94
61537;BME280;48695;53.480;-6.300;2023-07-02T01:27:21;100512.03;;;14.36;54.62
61537;BME280;48695;53.480;-6.300;2023-07-02T01:29:46;100520.81;;;14.35;55.29
61537;BME280;48695;53.480;-6.300;2023-07-02T01:32:12;100513.06;;;14.32;55.21
61537;BME280;48695;53.480;-6.300;2023-07-02T01:34:38;100521.91;;;14.29;55.20
61537;BME280;48695;53.480;-6.300;2023-07-02T01:37:04;100516.78;;;14.26;55.44
61537;BME280;48695;53.480;-6.300;2023-07-02T01:39:29;100520.47;;;14.22;54.97
61537;BME280;48695;53.480;-6.300;2023-07-02T01:41:55;100515.31;;;14.19;55.57
61537;BME280;48695;53.480;-6.300;2023-07-02T01:44:31;100522.47;;;14.15;55.32
61537;BME280;48695;53.480;-6.300;2023-07-02T01:46:56;100513.00;;;14.11;55.37
61537;BME280;48695;53.480;-6.300;2023-07-02T01:49:23;100518.38;;;14.08;55.21
61537;BME280;48695;53.480;-6.300;2023-07-02T01:51:53;100515.09;;;14.03;55.08
61537;BME280;48695;53.480;-6.300;2023-07-02T01:54:19;100515.22;;;14.00;55.06
61537;BME280;48695;53.480;-6.300;2023-07-02T01:56:44;100524.06;;;13.97;55.36
61537;BME280;48695;53.480;-6.300;2023-07-02T01:59:09;100522.44;;;13.95;55.38
61537;BME280;48695;53.480;-6.300;2023-07-02T02:01:35;100522.53;;;13.92;55.19
61537;BME280;48695;53.480;-6.300;2023-07-02T02:04:00;100473.09;;;13.59;55.31
61537;BME280;48695;53.480;-6.300;2023-07-02T02:06:25;100521.06;;;13.85;55.35
61537;BME280;48695;53.480;-6.300;2023-07-02T02:08:50;100519.41;;;13.82;55.71
61537;BME280;48695;53.480;-6.300;2023-07-02T02:11:16;100521.28;;;13.79;55.49
61537;BME280;48695;53.480;-6.300;2023-07-02T02:13:41;100512.63;;;13.76;55.31
61537;BME280;48695;53.480;-6.300;2023-07-02T02:16:06;100508.41;;;13.72;55.38
61537;BME280;48695;53.480;-6.300;2023-07-02T02:18:32;100517.28;;;13.70;55.18
61537;BME280;48695;53.480;-6.300;2023-07-02T02:20:57;100463.53;;;13.35;55.39
61537;BME280;48695;53.480;-6.300;2023-07-02T02:23:22;100515.69;;;13.66;55.49
61537;BME280;48695;53.480;-6.300;2023-07-02T02:25:48;100518.38;;;13.64;55.29
61537;BME280;48695;53.480;-6.300;2023-07-02T02:28:13;100518.38;;;13.64;55.57
61537;BME280;48695;53.480;-6.300;2023-07-02T02:30:38;100514.94;;;13.62;55.55
61537;BME280;48695;53.480;-6.300;2023-07-02T02:33:03;100512.38;;;13.61;55.53
61537;BME280;48695;53.480;-6.300;2023-07-02T02:35:29;100506.34;;;13.59;55.72
61537;BME280;48695;53.480;-6.300;2023-07-02T02:37:54;100504.66;;;13.56;55.70
61537;BME280;48695;53.480;-6.300;2023-07-02T02:40:19;100507.38;;;13.55;56.05
61537;BME280;48695;53.480;-6.300;2023-07-02T02:42:44;100504.78;;;13.53;55.90
61537;BME280;48695;53.480;-6.300;2023-07-02T02:45:10;100506.63;;;13.51;55.88
61537;BME280;48695;53.480;-6.300;2023-07-02T02:47:35;100511.00;;;13.50;55.85
61537;BME280;48695;53.480;-6.300;2023-07-02T02:50:00;100503.22;;;13.49;56.31
61537;BME280;48695;53.480;-6.300;2023-07-02T02:52:25;100497.16;;;13.47;56.09
61537;BME280;48695;53.480;-6.300;2023-07-02T02:54:51;100513.81;;;13.46;56.04
61537;BME280;48695;53.480;-6.300;2023-07-02T02:57:19;100511.28;;;13.43;56.52
61537;BME280;48695;53.480;-6.300;2023-07-02T02:59:44;100506.97;;;13.42;56.44
61537;BME280;48695;53.480;-6.300;2023-07-02T03:02:09;100521.84;;;13.41;56.72
61537;BME280;48695;53.480;-6.300;2023-07-02T03:04:35;100507.09;;;13.39;56.66
61537;BME280;48695;53.480;-6.300;2023-07-02T03:07:00;100505.41;;;13.36;56.63
61537;BME280;48695;53.480;-6.300;2023-07-02T03:09:25;100511.59;;;13.35;56.46
61537;BME280;48695;53.480;-6.300;2023-07-02T03:11:50;100518.66;;;13.33;56.65
61537;BME280;48695;53.480;-6.300;2023-07-02T03:14:16;100506.44;;;13.32;56.65
61537;BME280;48695;53.480;-6.300;2023-07-02T03:16:41;100505.59;;;13.32;57.05
61537;BME280;48695;53.480;-6.300;2023-07-02T03:19:07;100510.06;;;13.30;56.98
61537;BME280;48695;53.480;-6.300;2023-07-02T03:21:32;100519.63;;;13.31;56.87
61537;BME280;48695;53.480;-6.300;2023-07-02T03:23:57;100501.34;;;13.29;57.00
61537;BME280;48695;53.480;-6.300;2023-07-02T03:26:23;100503.09;;;13.29;56.83
61537;BME280;48695;53.480;-6.300;2023-07-02T03:28:49;100495.22;;;13.29;56.83
61537;BME280;48695;53.480;-6.300;2023-07-02T03:31:14;100496.09;;;13.29;57.11
61537;BME280;48695;53.480;-6.300;2023-07-02T03:33:40;100489.13;;;13.28;56.92
61537;BME280;48695;53.480;-6.300;2023-07-02T03:36:05;100490.00;;;13.29;57.30
61537;BME280;48695;53.480;-6.300;2023-07-02T03:38:30;100503.88;;;13.31;57.04
61537;BME280;48695;53.480;-6.300;2023-07-02T03:40:55;100502.03;;;13.33;57.50
61537;BME280;48695;53.480;-6.300;2023-07-02T03:43:21;100502.00;;;13.34;57.22
61537;BME280;48695;53.480;-6.300;2023-07-02T03:45:46;100496.69;;;13.36;57.32
61537;BME280;48695;53.480;-6.300;2023-07-02T03:48:11;100501.84;;;13.39;57.56
61537;BME280;48695;53.480;-6.300;2023-07-02T03:50:36;100500.00;;;13.41;57.77
61537;BME280;48695;53.480;-6.300;2023-07-02T03:53:02;100495.50;;;13.44;57.63
61537;BME280;48695;53.480;-6.300;2023-07-02T03:55:27;100505.00;;;13.47;57.74
61537;BME280;48695;53.480;-6.300;2023-07-02T03:57:52;100503.22;;;13.49;57.91
61537;BME280;48695;53.480;-6.300;2023-07-02T04:00:18;100505.66;;;13.54;58.05
61537;BME280;48695;53.480;-6.300;2023-07-02T04:02:43;100500.34;;;13.55;58.14
61537;BME280;48695;53.480;-6.300;2023-07-02T04:05:08;100488.81;;;13.59;57.78
61537;BME280;48695;53.480;-6.300;2023-07-02T04:07:34;100494.78;;;13.63;58.04
61537;BME280;48695;53.480;-6.300;2023-07-02T04:09:59;100492.97;;;13.65;58.13
61537;BME280;48695;53.480;-6.300;2023-07-02T04:12:24;100491.06;;;13.68;58.20
61537;BME280;48695;53.480;-6.300;2023-07-02T04:14:50;100489.25;;;13.70;57.85
61537;BME280;48695;53.480;-6.300;2023-07-02T04:17:15;100491.72;;;13.75;57.78
61537;BME280;48695;53.480;-6.300;2023-07-02T04:19:40;100497.75;;;13.77;58.13
61537;BME280;48695;53.480;-6.300;2023-07-02T04:22:06;100487.13;;;13.80;57.86
61537;BME280;48695;53.480;-6.300;2023-07-02T04:24:31;100489.69;;;13.82;57.89
61537;BME280;48695;53.480;-6.300;2023-07-02T04:26:56;100493.97;;;13.84;58.32
61537;BME280;48695;53.480;-6.300;2023-07-02T04:29:21;100491.28;;;13.86;58.10
61537;BME280;48695;53.480;-6.300;2023-07-02T04:31:47;100492.03;;;13.89;58.62
61537;BME280;48695;53.480;-6.300;2023-07-02T04:34:12;100489.31;;;13.91;58.41
61537;BME280;48695;53.480;-6.300;2023-07-02T04:36:37;100483.97;;;13.94;58.41
61537;BME280;48695;53.480;-6.300;2023-07-02T04:39:02;100487.38;;;13.96;58.53
61537;BME280;48695;53.480;-6.300;2023-07-02T04:41:28;100494.31;;;13.97;58.52
61537;BME280;48695;53.480;-6.300;2023-07-02T04:43:54;100492.50;;;13.99;58.64
61537;BME280;48695;53.480;-6.300;2023-07-02T04:46:20;100492.38;;;14.02;58.44
61537;BME280;48695;53.480;-6.300;2023-07-02T04:48:45;100497.50;;;14.05;58.17
61537;BME280;48695;53.480;-6.300;2023-07-02T04:51:10;100491.34;;;14.06;58.63
61537;BME280;48695;53.480;-6.300;2023-07-02T04:53:35;100494.72;;;14.10;58.28
61537;BME280;48695;53.480;-6.300;2023-07-02T04:56:02;100492.00;;;14.11;58.71
61537;BME280;48695;53.480;-6.300;2023-07-02T04:58:28;100492.78;;;14.13;58.72
61537;BME280;48695;53.480;-6.300;2023-07-02T05:00:53;100490.97;;;14.15;58.48
61537;BME280;48695;53.480;-6.300;2023-07-02T05:03:18;100493.44;;;14.18;58.57
61537;BME280;48695;53.480;-6.300;2023-07-02T05:05:43;100502.16;;;14.20;58.88
61537;BME280;48695;53.480;-6.300;2023-07-02T05:08:09;100492.41;;;14.22;58.79
61537;BME280;48695;53.480;-6.300;2023-07-02T05:10:35;100498.47;;;14.24;58.54
61537;BME280;48695;53.480;-6.300;2023-07-02T05:13:00;100496.63;;;14.26;58.51
61537;BME280;48695;53.480;-6.300;2023-07-02T05:15:26;100464.16;;;14.07;58.63
61537;BME280;48695;53.480;-6.300;2023-07-02T05:17:51;100502.56;;;14.32;58.79
61537;BME280;48695;53.480;-6.300;2023-07-02T05:20:16;100507.69;;;14.35;58.76
61537;BME280;48695;53.480;-6.300;2023-07-02T05:22:41;100500.59;;;14.37;59.04
61537;BME280;48695;53.480;-6.300;2023-07-02T05:25:07;100502.19;;;14.41;58.85
61537;BME280;48695;53.480;-6.300;2023-07-02T05:27:32;100497.69;;;14.43;59.02
61537;BME280;48695;53.480;-6.300;2023-07-02T05:29:57;100492.31;;;14.46;59.01
61537;BME280;48695;53.480;-6.300;2023-07-02T05:32:23;100501.88;;;14.48;58.71
61537;BME280;48695;53.480;-6.300;2023-07-02T05:34:48;100493.88;;;14.51;58.65
61537;BME280;48695;53.480;-6.300;2023-07-02T05:37:13;100492.88;;;14.54;58.97
61537;BME280;48695;53.480;-6.300;2023-07-02T05:39:38;100495.38;;;14.57;58.70
61537;BME280;48695;53.480;-6.300;2023-07-02T05:42:04;100501.38;;;14.61;58.79
61537;BME280;48695;53.480;-6.300;2023-07-02T05:44:29;100509.06;;;14.65;58.96
61537;BME280;48695;53.480;-6.300;2023-07-02T05:46:54;100496.69;;;14.67;59.08
61537;BME280;48695;53.480;-6.300;2023-07-02T05:49:19;100507.09;;;14.70;58.80
61537;BME280;48695;53.480;-6.300;2023-07-02T05:51:45;100502.53;;;14.74;58.73
61537;BME280;48695;53.480;-6.300;2023-07-02T05:54:10;100506.81;;;14.76;59.07
61537;BME280;48695;53.480;-6.300;2023-07-02T05:56:35;100517.19;;;14.79;59.01
61537;BME280;48695;53.480;-6.300;2023-07-02T05:59:01;100498.66;;;14.83;59.01
61537;BME280;48695;53.480;-6.300;2023-07-02T06:01:26;100506.44;;;14.86;58.77
61537;BME280;48695;53.480;-6.300;2023-07-02T06:03:51;100503.66;;;14.89;59.00
61537;BME280;48695;53.480;-6.300;2023-07-02T06:06:16;100507.84;;;14.93;58.85
61537;BME280;48695;53.480;-6.300;2023-07-02T06:08:42;100510.38;;;14.96;59.18
61537;BME280;48695;53.480;-6.300;2023-07-02T06:11:09;100503.19;;;14.99;58.86
61537;BME280;48695;53.480;-6.300;2023-07-02T06:13:35;100502.19;;;15.02;58.99
61537;BME280;48695;53.480;-6.300;2023-07-02T06:16:00;100501.06;;;15.08;59.10
61537;BME280;48695;53.480;-6.300;2023-07-02T06:18:25;100505.28;;;15.12;59.03
61537;BME280;48695;53.480;-6.300;2023-07-02T06:20:51;100499.81;;;15.16;59.32
61537;BME280;48695;53.480;-6.300;2023-07-02T06:23:16;100504.91;;;15.19;58.99
61537;BME280;48695;53.480;-6.300;2023-07-02T06:25:41;100502.09;;;15.24;59.12
61537;BME280;48695;53.480;-6.300;2023-07-02T06:28:07;100494.13;;;15.25;59.00
61537;BME280;48695;53.480;-6.300;2023-07-02T06:30:32;100495.69;;;15.29;59.12
61537;BME280;48695;53.480;-6.300;2023-07-02T06:32:57;100488.44;;;15.35;59.38
61537;BME280;48695;53.480;-6.300;2023-07-02T06:35:22;100489.88;;;15.42;59.22
61537;BME280;48695;53.480;-6.300;2023-07-02T06:37:47;100485.47;;;15.42;59.20
61537;BME280;48695;53.480;-6.300;2023-07-02T06:40:13;100484.16;;;15.51;59.31
61537;BME280;48695;53.480;-6.300;2023-07-02T06:42:38;100493.59;;;15.56;58.87
61537;BME280;48695;53.480;-6.300;2023-07-02T06:45:04;100496.84;;;15.62;59.09
61537;BME280;48695;53.480;-6.300;2023-07-02T06:47:29;100485.22;;;15.67;58.99
61537;BME280;48695;53.480;-6.300;2023-07-02T06:49:55;100496.38;;;15.72;59.05
61537;BME280;48695;53.480;-6.300;2023-07-02T06:52:20;100494.38;;;15.77;58.77
61537;BME280;48695;53.480;-6.300;2023-07-02T06:54:45;100497.66;;;15.82;58.98
61537;BME280;48695;53.480;-6.300;2023-07-02T06:57:12;100488.69;;;15.87;58.68
61537;BME280;48695;53.480;-6.300;2023-07-02T06:59:37;100487.59;;;15.91;58.60
61537;BME280;48695;53.480;-6.300;2023-07-02T07:02:02;100494.41;;;15.95;58.98
61537;BME280;48695;53.480;-6.300;2023-07-02T07:04:28;100496.75;;;16.01;58.82
61537;BME280;48695;53.480;-6.300;2023-07-02T07:06:53;100495.53;;;16.08;58.71
61537;BME280;48695;53.480;-6.300;2023-07-02T07:09:20;100493.53;;;16.13;58.49
61537;BME280;48695;53.480;-6.300;2023-07-02T07:11:45;100492.47;;;16.17;58.83
61537;BME280;48695;53.480;-6.300;2023-07-02T07:14:10;100489.53;;;16.23;58.41
61537;BME280;48695;53.480;-6.300;2023-07-02T07:16:36;100493.63;;;16.29;58.55
61537;BME280;48695;53.480;-6.300;2023-07-02T07:19:01;100496.81;;;16.35;58.56
61537;BME280;48695;53.480;-6.300;2023-07-02T07:21:26;100506.28;;;16.40;58.24
61537;BME280;48695;53.480;-6.300;2023-07-02T07:23:52;100506.97;;;16.43;58.37
61537;BME280;48695;53.480;-6.300;2023-07-02T07:26:17;100496.13;;;16.49;58.52
61537;BME280;48695;53.480;-6.300;2023-07-02T07:28:42;100502.78;;;16.56;58.42
61537;BME280;48695;53.480;-6.300;2023-07-02T07:31:07;100510.47;;;16.61;58.34
61537;BME280;48695;53.480;-6.300;2023-07-02T07:33:33;100498.84;;;16.65;58.21
61537;BME280;48695;53.480;-6.300;2023-07-02T07:35:58;100507.34;;;16.70;57.84
61537;BME280;48695;53.480;-6.300;2023-07-02T07:38:23;100498.31;;;16.76;58.01
61537;BME280;48695;53.480;-6.300;2023-07-02T07:40:48;100493.75;;;16.79;57.84
61537;BME280;48695;53.480;-6.300;2023-07-02T07:43:14;100490.94;;;16.82;57.74
61537;BME280;48695;53.480;-6.300;2023-07-02T07:45:39;100489.69;;;16.90;57.82
61537;BME280;48695;53.480;-6.300;2023-07-02T07:48:05;100493.78;;;16.95;57.35
61537;BME280;48695;53.480;-6.300;2023-07-02T07:50:30;100491.84;;;16.99;57.21
61537;BME280;48695;53.480;-6.300;2023-07-02T07:52:55;100488.88;;;17.05;57.26
61537;BME280;48695;53.480;-6.300;2023-07-02T07:55:20;100482.44;;;17.10;57.08
61537;BME280;48695;53.480;-6.300;2023-07-02T07:57:46;100487.38;;;17.17;56.81
61537;BME280;48695;53.480;-6.300;2023-07-02T08:00:12;100487.88;;;17.23;56.80
61537;BME280;48695;53.480;-6.300;2023-07-02T08:02:38;100492.84;;;17.29;56.84
61537;BME280;48695;53.480;-6.300;2023-07-02T08:05:03;100493.38;;;17.36;56.91
61537;BME280;48695;53.480;-6.300;2023-07-02T08:07:31;100493.88;;;17.43;56.72
61537;BME280;48695;53.480;-6.300;2023-07-02T08:09:56;100444.31;;;17.16;56.55
61537;BME280;48695;53.480;-6.300;2023-07-02T08:12:21;100493.22;;;17.55;56.72
61537;BME280;48695;53.480;-6.300;2023-07-02T08:14:46;100492.88;;;17.61;56.37
61537;BME280;48695;53.480;-6.300;2023-07-02T08:17:12;100500.31;;;17.70;56.00
61537;BME280;48695;53.480;-6.300;2023-07-02T08:19:37;100488.47;;;17.77;56.36
61537;BME280;48695;53.480;-6.300;2023-07-02T08:22:02;100482.78;;;17.85;56.03
61537;BME280;48695;53.480;-6.300;2023-07-02T08:24:28;100492.91;;;17.93;55.84
61537;BME280;48695;53.480;-6.300;2023-07-02T08:26:53;100493.34;;;18.01;55.70
61537;BME280;48695;53.480;-6.300;2023-07-02T08:29:19;100495.63;;;18.07;55.45
61537;BME280;48695;53.480;-6.300;2023-07-02T08:31:44;100489.97;;;18.13;55.31
61537;BME280;48695;53.480;-6.300;2023-07-02T08:34:09;100491.34;;;18.20;54.89
61537;BME280;48695;53.480;-6.300;2023-07-02T08:36:34;100486.72;;;18.24;55.01
61537;BME280;48695;53.480;-6.300;2023-07-02T08:39:00;100494.22;;;18.31;54.74
61537;BME280;48695;53.480;-6.300;2023-07-02T08:41:25;100497.59;;;18.33;54.52
61537;BME280;48695;53.480;-6.300;2023-07-02T08:43:55;100494.78;;;18.36;53.83
61537;BME280;48695;53.480;-6.300;2023-07-02T08:46:20;100488.66;;;18.36;53.97
61537;BME280;48695;53.480;-6.300;2023-07-02T08:48:46;100487.03;;;18.33;53.60
61537;BME280;48695;53.480;-6.300;2023-07-02T08:51:11;100492.50;;;18.30;53.97
61537;BME280;48695;53.480;-6.300;2023-07-02T08:53:37;100490.78;;;18.29;53.34
61537;BME280;48695;53.480;-6.300;2023-07-02T08:56:02;100501.56;;;18.26;53.75
61537;BME280;48695;53.480;-6.300;2023-07-02T08:58:28;100502.56;;;18.24;53.36
61537;BME280;48695;53.480;-6.300;2023-07-02T09:01:09;100501.03;;;18.20;53.10
61537;BME280;48695;53.480;-6.300;2023-07-02T09:03:35;100496.78;;;18.17;53.07
61537;BME280;48695;53.480;-6.300;2023-07-02T09:06:05;100489.81;;;18.16;53.47
61537;BME280;48695;53.480;-6.300;2023-07-02T09:08:30;100483.00;;;18.12;53.48
61537;BME280;48695;53.480;-6.300;2023-07-02T09:11:11;100479.59;;;18.10;53.06
61537;BME280;48695;53.480;-6.300;2023-07-02T09:13:46;100483.16;;;18.09;53.17
61537;BME280;48695;53.480;-6.300;2023-07-02T09:16:21;100487.59;;;18.08;53.53
61537;BME280;48695;53.480;-6.300;2023-07-02T09:19:03;100477.72;;;18.12;54.18
61537;BME280;48695;53.480;-6.300;2023-07-02T09:24:13;100480.03;;;18.32;54.42
61537;BME280;48695;53.480;-6.300;2023-07-02T09:26:41;100474.03;;;18.45;54.37
61537;BME280;48695;53.480;-6.300;2023-07-02T09:29:07;100476.72;;;18.59;54.28
61537;BME280;48695;53.480;-6.300;2023-07-02T09:31:42;100471.38;;;18.75;54.25
61537;BME280;48695;53.480;-6.300;2023-07-02T09:34:08;100473.03;;;18.91;54.26
61537;BME280;48695;53.480;-6.300;2023-07-02T09:36:33;100473.56;;;19.11;54.19
61537;BME280;48695;53.480;-6.300;2023-07-02T09:38:58;100464.50;;;19.29;54.29
61537;BME280;48695;53.480;-6.300;2023-07-02T09:41:24;100466.00;;;19.48;53.95
61537;BME280;48695;53.480;-6.300;2023-07-02T09:43:49;100459.75;;;19.63;53.28
61537;BME280;48695;53.480;-6.300;2023-07-02T09:46:14;100460.56;;;19.78;52.89
61537;BME280;48695;53.480;-6.300;2023-07-02T09:48:40;100447.34;;;19.90;52.09
61537;BME280;48695;53.480;-6.300;2023-07-02T09:51:05;100444.00;;;20.01;51.11
61537;BME280;48695;53.480;-6.300;2023-07-02T09:53:30;100440.84;;;20.09;50.70
61537;BME280;48695;53.480;-6.300;2023-07-02T09:55:56;100441.94;;;20.19;50.94
61537;BME280;48695;53.480;-6.300;2023-07-02T09:58:21;100452.66;;;20.30;50.13
61537;BME280;48695;53.480;-6.300;2023-07-02T10:00:47;100443.25;;;20.39;49.29
61537;BME280;48695;53.480;-6.300;2023-07-02T10:03:12;100441.97;;;20.44;49.02
61537;BME280;48695;53.480;-6.300;2023-07-02T10:05:37;100455.81;;;20.50;49.10
61537;BME280;48695;53.480;-6.300;2023-07-02T10:08:14;100442.13;;;20.56;48.86
61537;BME280;48695;53.480;-6.300;2023-07-02T10:10:42;100462.94;;;20.62;48.43
61537;BME280;48695;53.480;-6.300;2023-07-02T10:13:07;100438.63;;;20.68;48.83
61537;BME280;48695;53.480;-6.300;2023-07-02T10:15:32;100443.28;;;20.77;48.27
61537;BME280;48695;53.480;-6.300;2023-07-02T10:18:02;100431.84;;;20.89;48.54
61537;BME280;48695;53.480;-6.300;2023-07-02T10:20:35;100435.84;;;21.08;48.36
61537;BME280;48695;53.480;-6.300;2023-07-02T10:23:00;100434.97;;;21.33;48.07
61537;BME280;48695;53.480;-6.300;2023-07-02T10:25:27;100441.56;;;21.64;46.26
61537;BME280;48695;53.480;-6.300;2023-07-02T10:27:53;100438.81;;;21.89;46.77
61537;BME280;48695;53.480;-6.300;2023-07-02T10:30:29;100428.06;;;22.15;45.71
61537;BME280;48695;53.480;-6.300;2023-07-02T10:32:55;100397.88;;;22.16;45.18
61537;BME280;48695;53.480;-6.300;2023-07-02T10:35:20;100433.16;;;22.53;45.23
61537;BME280;48695;53.480;-6.300;2023-07-02T10:37:45;100430.88;;;22.71;45.26
61537;BME280;48695;53.480;-6.300;2023-07-02T10:40:11;100432.75;;;22.93;45.29
61537;BME280;48695;53.480;-6.300;2023-07-02T10:42:46;100433.09;;;23.11;45.01
61537;BME280;48695;53.480;-6.300;2023-07-02T10:45:11;100440.00;;;23.24;44.48
61537;BME280;48695;53.480;-6.300;2023-07-02T10:47:40;100428.84;;;23.30;43.28
61537;BME280;48695;53.480;-6.300;2023-07-02T10:50:21;100434.16;;;23.30;42.21
61537;BME280;48695;53.480;-6.300;2023-07-02T10:52:48;100424.34;;;23.31;42.58
61537;BME280;48695;53.480;-6.300;2023-07-02T10:55:24;100430.63;;;23.41;43.14
61537;BME280;48695;53.480;-6.300;2023-07-02T10:57:50;100419.97;;;23.64;43.03
61537;BME280;48695;53.480;-6.300;2023-07-02T11:00:16;100418.66;;;23.90;43.15
61537;BME280;48695;53.480;-6.300;2023-07-02T11:02:42;100425.53;;;24.25;42.77
61537;BME280;48695;53.480;-6.300;2023-07-02T11:05:07;100420.75;;;24.61;41.74
61537;BME280;48695;53.480;-6.300;2023-07-02T11:07:37;100374.97;;;24.65;40.65
61537;BME280;48695;53.480;-6.300;2023-07-02T11:10:03;100422.25;;;25.05;39.78
61537;BME280;48695;53.480;-6.300;2023-07-02T11:12:30;100409.47;;;25.08;38.69
61537;BME280;48695;53.480;-6.300;2023-07-02T11:14:55;100420.66;;;25.02;38.53
61537;BME280;48695;53.480;-6.300;2023-07-02T11:17:24;100420.75;;;24.91;38.28
61537;BME280;48695;53.480;-6.300;2023-07-02T11:19:50;100414.09;;;24.76;37.63
61537;BME280;48695;53.480;-6.300;2023-07-02T11:22:16;100413.44;;;24.63;38.04
61537;BME280;48695;53.480;-6.300;2023-07-02T11:24:41;100422.28;;;24.53;38.97
61537;BME280;48695;53.480;-6.300;2023-07-02T11:27:06;100398.94;;;24.55;38.80
61537;BME280;48695;53.480;-6.300;2023-07-02T11:29:32;100405.31;;;24.64;38.93
61537;BME280;48695;53.480;-6.300;2023-07-02T11:32:07;100410.44;;;24.77;37.76
61537;BME280;48695;53.480;-6.300;2023-07-02T11:34:34;100408.22;;;24.82;38.43
61537;BME280;48695;53.480;-6.300;2023-07-02T11:36:59;100350.75;;;24.57;38.39
61537;BME280;48695;53.480;-6.300;2023-07-02T11:39:25;100418.34;;;24.88;38.61
61537;BME280;48695;53.480;-6.300;2023-07-02T11:41:50;100404.59;;;24.93;38.39
61537;BME280;48695;53.480;-6.300;2023-07-02T11:44:15;100405.63;;;25.01;37.72
61537;BME280;48695;53.480;-6.300;2023-07-02T11:46:41;100405.22;;;25.06;38.09
61537;BME280;48695;53.480;-6.300;2023-07-02T11:49:06;100411.28;;;25.08;37.67
61537;BME280;48695;53.480;-6.300;2023-07-02T11:51:34;100404.69;;;25.12;37.34
61537;BME280;48695;53.480;-6.300;2023-07-02T11:54:00;100397.97;;;25.18;37.26
61537;BME280;48695;53.480;-6.300;2023-07-02T11:56:25;100405.28;;;25.16;37.04
61537;BME280;48695;53.480;-6.300;2023-07-02T11:58:50;100397.28;;;25.16;36.49
61537;BME280;48695;53.480;-6.300;2023-07-02T12:01:15;100368.31;;;24.90;36.02
61537;BME280;48695;53.480;-6.300;2023-07-02T12:03:41;100416.44;;;25.00;35.83
61537;BME280;48695;53.480;-6.300;2023-07-02T12:06:06;100372.44;;;24.64;36.49
61537;BME280;48695;53.480;-6.300;2023-07-02T12:08:31;100409.53;;;24.67;36.47
61537;BME280;48695;53.480;-6.300;2023-07-02T12:10:56;100399.19;;;24.52;37.28
61537;BME280;48695;53.480;-6.300;2023-07-02T12:13:21;100388.06;;;24.47;37.95
61537;BME280;48695;53.480;-6.300;2023-07-02T12:15:47;100393.22;;;24.60;38.86
61537;BME280;48695;53.480;-6.300;2023-07-02T12:18:12;100385.84;;;24.83;39.24
61537;BME280;48695;53.480;-6.300;2023-07-02T12:20:39;100396.53;;;25.14;40.06
61537;BME280;48695;53.480;-6.300;2023-07-02T12:23:04;100389.03;;;25.48;40.03
61537;BME280;48695;53.480;-6.300;2023-07-02T12:25:30;100382.91;;;25.86;39.37
61537;BME280;48695;53.480;-6.300;2023-07-02T12:27:55;100398.38;;;26.21;38.52
61537;BME280;48695;53.480;-6.300;2023-07-02T12:30:21;100400.06;;;26.51;37.29
61537;BME280;48695;53.480;-6.300;2023-07-02T12:32:46;100398.44;;;26.68;36.27
61537;BME280;48695;53.480;-6.300;2023-07-02T12:35:11;100399.84;;;26.72;35.67
61537;BME280;48695;53.480;-6.300;2023-07-02T12:37:48;100412.97;;;26.65;35.25